Airfield :
LOGIN :

Register | Disclaimer

   EN    FR    IT 

 










Legend :    VFR   Marginal VFR   IFR   Intensive IFR   Very Intensive IFR
Visi :
Ceiling :
>= 8 km
>= 3000ft
5 to 8 km
1000 to 3000 ft
1500m to 5 km
500 to 1000 ft
800 to 1500m
200 to 500 ft
< 800m
< 200 ft
Symbols :   Thunderstorms  Fog  Heavy snow  Heavy precipitations  Wind > 20 kt
SIGMETs :     Misc.  Thunderstorms  Icing  Turbulence  Mountain Waves  Volcanic Ashes







- Airport Elevation : 405 ft
- IATA code : ODH


EGVO - RAF Odiham

CURRENT METAR :
  • 111950Z 13007KT 8000 BR BKN030 BKN170 05/05 Q1022 BLU BECMG 6000 BR WHT

EXPIRED METARs :
  • 111850Z 13008KT 9999 FEW030 SCT170 05/05 Q1022 BLU NOSIG
  • 111750Z 13009KT 9999 FEW032 05/04 Q1022 BLU NOSIG

TAF TAF EGVO
Valid from the 11 at 18:00 until the 12 at 06:00 UTC


111643Z 1118/1206 13008KT 9999 SCT030
PROB30
TEMPO 1118/1206 SCT020
PROB40
TEMPO 1119/1206 6000 BR
No reported NOTAMs for that airfield.



MET'MAP, your aeronautical weather chart ! - Copyright ORBIFLY December 2007 - Disclaimer

ORBIFLY MET'MAP TEAM :

Programming & Development : Alexandra Zaïnal
Concept & Development : Baudouin d'Aumeries
Co-Development & Prog : Marc-Olivier Méhu
Technical & hardware support : Manuel Goepfert

Contact : metmap@orbifly.com




SOURCES & CREDITS :

   NOAA